Time;durP1;ratioP1;P1;durP2;ratioP2;P2;SDS_P1;SDS_P2;PMS_P1;PMS_P2;Temp;Humidity;BMP_temperature;BMP_pressure;BME280_temperature;BME280_humidity;BME280_pressure;Samples;Min_cycle;Max_cycle;Signal;HPM_P1;HPM_P2
2022/03/01 00:01:47;;;;;;;10.10;4.73;;;;;;;-145.69;64.15;73816.81;5093778;28;20194;-76
2022/03/01 00:04:14;;;;;;;12.50;5.60;;;;;;;-145.69;65.04;73828.78;5093708;28;20198;-76
2022/03/01 00:06:40;;;;;;;12.70;5.00;;;;;;;-145.69;64.34;73818.81;5093721;28;20289;-76
2022/03/01 00:09:07;;;;;;;10.50;4.70;;;;;;;-145.69;64.51;73806.88;5093484;28;20668;-76
2022/03/01 00:11:35;;;;;;;13.57;5.50;;;;;;;-145.69;63.44;73806.88;5076585;28;20199;-76
2022/03/01 00:14:02;;;;;;;11.80;5.47;;;;;;;-145.69;64.38;73826.78;5073435;28;20198;-76
2022/03/01 00:16:28;;;;;;;14.38;5.90;;;;;;;-145.69;64.36;73826.78;5072610;28;20450;-76
2022/03/01 00:18:55;;;;;;;12.77;5.17;;;;;;;-145.69;65.64;73842.72;5073012;28;20261;-76
2022/03/01 00:21:24;;;;;;;12.67;5.30;;;;;;;-145.69;65.37;73854.66;5085366;28;20198;-75
2022/03/01 00:23:51;;;;;;;11.73;5.07;;;;;;;-145.69;67.22;73878.56;5091424;28;20209;-76
2022/03/01 00:26:18;;;;;;;10.63;5.10;;;;;;;-145.69;67.21;73890.50;5093103;28;20210;-76
2022/03/01 00:28:45;;;;;;;13.17;5.30;;;;;;;-145.69;67.25;73886.50;5093600;28;20198;-76
2022/03/01 00:31:13;;;;;;;13.17;5.30;;;;;;;-145.69;67.42;73880.53;5093447;28;20325;-76
2022/03/01 00:33:39;;;;;;;16.03;5.53;;;;;;;-145.69;66.55;73858.63;5093206;28;20661;-76
2022/03/01 00:36:06;;;;;;;16.23;5.57;;;;;;;-145.69;66.43;73864.63;5093098;28;20703;-76
2022/03/01 00:38:33;;;;;;;13.03;5.10;;;;;;;-145.69;66.62;73866.59;5093072;28;20205;-75
2022/03/01 00:41:03;;;;;;;12.17;4.83;;;;;;;-145.69;66.94;73886.50;5093204;28;20201;-76
2022/03/01 00:43:30;;;;;;;12.10;5.37;;;;;;;-145.69;67.98;73888.50;5093093;28;20209;-76
2022/03/01 00:45:58;;;;;;;14.00;5.80;;;;;;;-145.69;68.42;73900.44;5093193;28;20202;-76
2022/03/01 00:48:24;;;;;;;12.83;5.60;;;;;;;-145.69;68.27;73886.50;5093057;28;20718;-77
2022/03/01 00:50:51;;;;;;;11.80;4.83;;;;;;;-145.69;67.23;73874.56;5093203;28;20201;-77
2022/03/01 00:53:17;;;;;;;16.57;5.30;;;;;;;-145.69;68.08;73882.53;5092903;28;20687;-76
2022/03/01 00:55:44;;;;;;;12.90;5.53;;;;;;;-145.69;68.30;73898.47;5093099;28;20206;-76
2022/03/01 00:58:10;;;;;;;14.03;5.37;;;;;;;-145.69;69.01;73894.47;5093073;28;20193;-76
2022/03/01 01:00:37;;;;;;;13.03;5.53;;;;;;;-145.69;68.95;73910.41;5093108;28;20198;-76
2022/03/01 01:03:05;;;;;;;12.20;5.20;;;;;;;-145.69;68.86;73906.44;5093024;28;20206;-76
2022/03/01 01:05:31;;;;;;;12.63;5.40;;;;;;;-145.69;68.38;73910.41;5092881;28;20202;-76
2022/03/01 01:07:58;;;;;;;12.63;5.60;;;;;;;-145.69;68.74;73918.38;5094083;28;20198;-76
2022/03/01 01:10:25;;;;;;;13.90;5.60;;;;;;;-145.69;69.88;73930.31;5097062;28;20198;-76
2022/03/01 01:12:52;;;;;;;14.20;5.50;;;;;;;-145.69;70.50;73950.22;5097045;28;20198;-76
2022/03/01 01:15:20;;;;;;;15.57;5.77;;;;;;;-145.69;71.03;73934.31;5096943;28;20322;-76
2022/03/01 01:17:47;;;;;;;13.53;5.37;;;;;;;-145.69;69.17;73898.47;5096442;28;20333;-76
2022/03/01 01:20:16;;;;;;;16.70;6.40;;;;;;;-145.69;70.16;73918.38;5096565;28;20256;-76
2022/03/01 01:22:43;;;;;;;13.23;5.50;;;;;;;-145.69;71.08;73930.31;5096764;28;20198;-76
2022/03/01 01:25:13;;;;;;;13.00;5.77;;;;;;;-145.69;70.97;73928.31;5096875;28;20248;-76
2022/03/01 01:27:44;;;;;;;15.40;5.97;;;;;;;-145.69;71.47;73948.25;5096617;28;20676;-76
2022/03/01 01:30:13;;;;;;;11.83;5.37;;;;;;;-145.69;72.03;73950.22;5096641;28;20202;-76
2022/03/01 01:32:39;;;;;;;13.23;5.30;;;;;;;-145.69;74.11;73976.13;5096616;28;20526;-76
2022/03/01 01:35:08;;;;;;;18.83;5.70;;;;;;;-145.69;74.78;74005.97;5096440;28;20206;-76
2022/03/01 01:37:36;;;;;;;12.53;5.63;;;;;;;-145.69;76.51;74035.84;5096690;28;20230;-76
2022/03/01 01:40:06;;;;;;;12.83;6.00;;;;;;;-145.69;76.19;73994.03;5096435;28;20243;-76
2022/03/01 01:42:33;;;;;;;12.90;6.00;;;;;;;-145.69;76.90;73986.06;5096299;28;20571;-76
2022/03/01 01:45:01;;;;;;;18.37;5.90;;;;;;;-145.69;72.65;73922.34;5096265;28;20276;-76
2022/03/01 01:47:27;;;;;;;14.27;5.90;;;;;;;-145.69;72.54;73910.41;5096301;28;20232;-76
2022/03/01 01:49:54;;;;;;;18.57;5.87;;;;;;;-145.69;71.56;73914.38;5096447;28;20198;-76
2022/03/01 01:52:20;;;;;;;12.07;5.60;;;;;;;-145.69;73.57;73934.31;5096316;28;20234;-76
2022/03/01 01:54:48;;;;;;;14.07;5.70;;;;;;;-145.69;74.34;73944.25;5096178;28;20209;-76
2022/03/01 01:57:15;;;;;;;16.50;6.67;;;;;;;-145.69;73.89;73958.19;5095995;28;20226;-76
2022/03/01 01:59:45;;;;;;;15.50;6.37;;;;;;;-145.69;75.45;73978.09;5096103;28;20201;-76
2022/03/01 02:02:13;;;;;;;14.17;6.03;;;;;;;-145.69;75.03;73976.13;5095799;28;20655;-76
2022/03/01 02:04:40;;;;;;;13.80;5.73;;;;;;;-145.69;74.17;73972.13;5096037;28;20194;-76
2022/03/01 02:07:08;;;;;;;12.90;5.70;;;;;;;-145.69;75.16;73990.06;5095931;28;20206;-76
2022/03/01 02:09:35;;;;;;;15.77;5.60;;;;;;;-145.69;77.95;73988.06;5095756;28;20210;-76
2022/03/01 02:12:03;;;;;;;15.23;6.97;;;;;;;-145.69;78.70;74009.97;5095761;28;20202;-76
2022/03/01 02:14:31;;;;;;;15.77;6.60;;;;;;;-145.69;79.21;74017.94;5077749;28;20249;-76
2022/03/01 02:16:58;;;;;;;14.40;6.73;;;;;;;-145.69;79.56;74007.97;5075731;28;20325;-75
2022/03/01 02:19:25;;;;;;;17.90;7.00;;;;;;;-145.69;80.29;74019.91;5074144;28;20250;-75
2022/03/01 02:21:55;;;;;;;15.30;6.43;;;;;;;-145.69;80.67;74031.88;5075501;28;20210;-75
2022/03/01 02:24:23;;;;;;;18.33;7.43;;;;;;;-145.69;80.48;74019.91;5075291;28;20238;-76
2022/03/01 02:26:50;;;;;;;16.90;6.77;;;;;;;-145.69;77.80;73996.03;5081400;28;20194;-75
2022/03/01 02:29:17;;;;;;;13.47;6.20;;;;;;;-145.69;78.75;74004.00;5095337;28;20679;-75
2022/03/01 02:31:43;;;;;;;14.67;6.37;;;;;;;-145.69;79.91;74000.00;5095526;28;20248;-76
2022/03/01 02:34:10;;;;;;;17.20;6.43;;;;;;;-145.69;78.72;73998.03;5095463;28;20198;-76
2022/03/01 02:36:36;;;;;;;16.03;6.30;;;;;;;-145.69;76.98;73980.09;5095192;28;20228;-76
2022/03/01 02:39:04;;;;;;;12.37;5.97;;;;;;;-145.69;77.99;73986.06;5095312;28;20530;-76
2022/03/01 02:41:31;;;;;;;16.27;7.00;;;;;;;-145.69;77.57;73988.06;5095044;28;20665;-76
2022/03/01 02:43:57;;;;;;;15.33;6.73;;;;;;;-145.69;76.59;73972.13;5095003;28;20258;-76
2022/03/01 02:46:24;;;;;;;15.43;6.17;;;;;;;-145.69;79.64;74009.97;5095176;28;20212;-76
2022/03/01 02:48:50;;;;;;;16.00;8.40;;;;;;;-145.69;79.54;74017.94;5094502;28;20439;-76
2022/03/01 02:51:17;;;;;;;14.90;7.00;;;;;;;-145.69;79.27;74025.91;5094986;28;20248;-76
2022/03/01 02:53:43;;;;;;;15.10;6.50;;;;;;;-145.69;80.77;74057.75;5094897;28;20210;-76
2022/03/01 02:56:11;;;;;;;16.13;6.77;;;;;;;-145.69;81.17;74085.63;5094663;28;20198;-76
2022/03/01 02:58:38;;;;;;;16.43;7.00;;;;;;;-145.69;83.36;74109.53;5094906;28;20198;-76
2022/03/01 03:01:04;;;;;;;19.00;7.33;;;;;;;-145.69;82.55;74085.63;5094936;28;20592;-76
2022/03/01 03:03:31;;;;;;;16.47;6.77;;;;;;;-145.69;82.72;74109.53;5094636;28;20206;-76
2022/03/01 03:05:57;;;;;;;16.57;6.73;;;;;;;-145.69;84.23;74137.41;5094510;28;20198;-76
2022/03/01 03:08:24;;;;;;;23.47;7.40;;;;;;;-145.69;86.55;74133.41;5094340;28;20228;-76
2022/03/01 03:10:50;;;;;;;15.57;7.00;;;;;;;-145.69;86.21;74135.41;5094295;28;20655;-76
2022/03/01 03:13:19;;;;;;;16.40;6.57;;;;;;;-145.69;87.80;74165.28;5094552;28;20202;-76
2022/03/01 03:15:46;;;;;;;17.37;7.57;;;;;;;-145.69;88.63;74179.22;5094426;28;20198;-76
2022/03/01 03:18:13;;;;;;;22.27;8.87;;;;;;;-145.69;90.10;74195.16;5093501;28;20807;-76
2022/03/01 03:20:39;;;;;;;20.13;9.60;;;;;;;-145.69;88.21;74167.28;5094195;28;20191;-76
2022/03/01 03:23:06;;;;;;;18.70;7.30;;;;;;;-145.69;89.09;74185.19;5094100;28;20657;-76
2022/03/01 03:25:34;;;;;;;16.43;6.77;;;;;;;-145.69;89.53;74191.16;5094081;28;20205;-76
2022/03/01 03:28:01;;;;;;;18.93;7.67;;;;;;;-145.69;87.82;74135.41;5094106;28;20198;-76
2022/03/01 03:30:29;;;;;;;17.83;7.40;;;;;;;-145.69;88.65;74155.31;5093998;28;20653;-76
2022/03/01 03:32:55;;;;;;;19.33;7.73;;;;;;;-145.69;89.01;74159.31;5094154;28;20202;-76
2022/03/01 03:35:22;;;;;;;18.60;7.57;;;;;;;-145.69;91.04;74169.25;5094061;28;20198;-76
2022/03/01 03:37:48;;;;;;;19.27;7.17;;;;;;;-145.69;91.18;74193.16;5093941;28;20708;-76
2022/03/01 03:40:15;;;;;;;17.40;6.70;;;;;;;-145.69;92.64;74213.06;5094175;28;20214;-76
2022/03/01 03:42:44;;;;;;;16.47;6.77;;;;;;;-145.69;93.46;74227.00;5093863;28;20206;-76
2022/03/01 03:45:12;;;;;;;18.23;7.87;;;;;;;-145.69;92.19;74199.13;5093902;28;20206;-76
2022/03/01 03:47:39;;;;;;;19.30;7.17;;;;;;;-145.69;91.31;74201.13;5093967;28;20543;-76
2022/03/01 03:50:09;;;;;;;21.50;6.97;;;;;;;-145.69;91.63;74205.09;5093670;28;20198;-76
2022/03/01 03:52:36;;;;;;;19.13;7.50;;;;;;;-145.69;91.09;74211.06;5093862;28;20247;-77
2022/03/01 03:55:05;;;;;;;17.87;7.90;;;;;;;-145.69;91.37;74193.16;5093881;28;20680;-76
2022/03/01 03:57:32;;;;;;;19.37;7.83;;;;;;;-145.69;89.58;74167.28;5093559;28;20218;-76
2022/03/01 03:59:59;;;;;;;22.87;7.60;;;;;;;-145.69;89.58;74179.22;5093528;28;20206;-76
2022/03/01 04:02:25;;;;;;;16.43;7.17;;;;;;;-145.69;89.14;74167.28;5093676;28;20201;-76
2022/03/01 04:04:53;;;;;;;17.80;7.00;;;;;;;-145.69;84.37;74101.56;5093493;28;20657;-77
2022/03/01 04:07:20;;;;;;;14.03;6.23;;;;;;;-145.69;85.64;74133.41;5093732;28;20206;-77
2022/03/01 04:09:47;;;;;;;18.27;7.20;;;;;;;-145.69;85.30;74141.38;5093574;28;20198;-75
2022/03/01 04:12:14;;;;;;;18.47;6.37;;;;;;;-145.69;87.20;74161.28;5093534;28;20279;-76
2022/03/01 04:14:40;;;;;;;17.73;7.17;;;;;;;-145.69;85.00;74117.50;5092067;28;20275;-76
2022/03/01 04:17:08;;;;;;;17.60;7.13;;;;;;;-145.69;82.91;74115.50;5075206;28;20230;-76
2022/03/01 04:19:35;;;;;;;18.50;6.87;;;;;;;-145.69;83.68;74135.41;5072820;28;20703;-76
2022/03/01 04:22:03;;;;;;;16.67;7.90;;;;;;;-145.69;84.40;74123.47;5090697;28;20576;-76
2022/03/01 04:24:30;;;;;;;14.83;6.63;;;;;;;-145.69;84.70;74127.44;5093300;28;20202;-76
2022/03/01 04:26:56;;;;;;;15.20;7.07;;;;;;;-145.69;84.00;74121.47;5093011;28;20722;-76
2022/03/01 04:29:24;;;;;;;15.90;6.57;;;;;;;-145.69;83.36;74133.41;5093180;28;20228;-76
2022/03/01 04:31:51;;;;;;;15.97;6.53;;;;;;;-145.69;80.66;74107.53;5093069;28;20205;-76
2022/03/01 04:34:17;;;;;;;13.37;5.70;;;;;;;-145.69;78.61;74085.63;5092916;28;20726;-76
2022/03/01 04:36:44;;;;;;;17.80;7.33;;;;;;;-145.69;80.25;74069.69;5093083;28;20281;-76
2022/03/01 04:39:12;;;;;;;14.03;6.17;;;;;;;-145.69;79.49;74077.66;5093058;28;20263;-76
2022/03/01 04:41:39;;;;;;;13.53;6.00;;;;;;;-145.69;79.55;74097.56;5092880;28;20669;-76
2022/03/01 04:44:06;;;;;;;19.85;8.60;;;;;;;-145.69;82.05;74117.50;5090982;28;20475;-76
2022/03/01 04:46:32;;;;;;;22.20;7.67;;;;;;;-145.69;81.82;74117.50;5092710;28;20599;-76
2022/03/01 04:48:59;;;;;;;15.13;6.00;;;;;;;-145.69;78.94;74097.56;5092793;28;20209;-76
2022/03/01 04:51:26;;;;;;;16.33;6.40;;;;;;;-145.69;79.54;74109.53;5092996;28;20253;-76
2022/03/01 04:53:55;;;;;;;17.10;6.63;;;;;;;-145.69;82.51;74119.47;5092875;28;20229;-77
2022/03/01 04:56:24;;;;;;;12.33;5.83;;;;;;;-145.69;80.40;74105.53;5092902;28;20285;-76
2022/03/01 04:58:51;;;;;;;21.97;6.60;;;;;;;-145.69;82.40;74125.44;5092683;28;20261;-76
2022/03/01 05:01:18;;;;;;;16.27;6.10;;;;;;;-145.69;81.11;74117.50;5092533;28;20202;-77
2022/03/01 05:03:44;;;;;;;16.73;5.90;;;;;;;-145.69;81.53;74151.34;5092948;28;20197;-77
2022/03/01 05:06:11;;;;;;;17.10;6.83;;;;;;;-145.69;83.31;74163.28;5092935;28;20255;-77
2022/03/01 05:08:37;;;;;;;13.90;6.13;;;;;;;-145.69;82.89;74147.34;5092939;28;20202;-76
2022/03/01 05:11:04;;;;;;;10.80;5.87;;;;;;;-145.69;79.80;74127.44;5092874;28;20202;-77
2022/03/01 05:13:32;;;;;;;14.63;5.70;;;;;;;-145.69;81.74;74161.28;5092745;28;20202;-77
2022/03/01 05:15:59;;;;;;;12.60;5.67;;;;;;;-145.69;75.77;74093.59;5092727;28;20664;-77
2022/03/01 05:18:26;;;;;;;18.03;6.47;;;;;;;-145.69;76.95;74099.56;5092470;28;20731;-77
2022/03/01 05:20:53;;;;;;;18.77;5.63;;;;;;;-145.69;78.55;74135.41;5092648;28;20684;-77
2022/03/01 05:23:19;;;;;;;14.20;5.73;;;;;;;-145.69;79.48;74153.34;5092794;28;20199;-77
2022/03/01 05:25:46;;;;;;;13.67;5.63;;;;;;;-145.69;77.23;74109.53;5092514;28;20653;-77
2022/03/01 05:28:12;;;;;;;12.47;5.63;;;;;;;-145.69;78.34;74115.50;5092442;28;20202;-77
2022/03/01 05:30:40;;;;;;;13.20;5.67;;;;;;;-145.69;78.33;74119.47;5092487;28;20209;-77
2022/03/01 05:33:07;;;;;;;19.20;6.47;;;;;;;-145.69;79.87;74161.28;5092551;28;20205;-78
2022/03/01 05:35:33;;;;;;;12.30;5.63;;;;;;;-145.69;80.98;74135.41;5092702;28;20209;-77
2022/03/01 05:38:02;;;;;;;16.30;6.07;;;;;;;-145.69;81.30;74181.22;5092338;28;20264;-78
2022/03/01 05:40:31;;;;;;;17.57;5.37;;;;;;;-145.69;81.86;74217.06;5092541;28;20198;-78
2022/03/01 05:42:58;;;;;;;13.93;5.47;;;;;;;-145.69;82.53;74223.03;5092350;28;20202;-78
2022/03/01 05:45:25;;;;;;;15.60;5.77;;;;;;;-145.69;80.65;74195.16;5092624;28;20206;-78
2022/03/01 05:47:54;;;;;;;11.97;4.87;;;;;;;-145.69;81.28;74205.09;5092554;28;20252;-78
2022/03/01 05:50:21;;;;;;;16.17;6.10;;;;;;;-145.69;81.18;74193.16;5092317;28;20205;-79
2022/03/01 05:52:48;;;;;;;16.57;5.77;;;;;;;-145.69;82.02;74209.09;5092422;28;20202;-78
2022/03/01 05:55:15;;;;;;;15.60;5.97;;;;;;;-145.69;81.41;74213.06;5093746;28;20664;-78
2022/03/01 05:57:41;;;;;;;16.30;5.17;;;;;;;-145.69;80.41;74203.13;5095838;28;20700;-78
2022/03/01 06:00:12;;;;;;;12.53;6.23;;;;;;;-145.69;80.71;74221.03;5095999;28;20194;-77
2022/03/01 06:02:38;;;;;;;16.00;6.33;;;;;;;-145.69;81.75;74238.97;5095818;28;20206;-77
2022/03/01 06:05:07;;;;;;;14.07;6.13;;;;;;;-145.69;82.05;74209.09;5095952;28;20206;-77
2022/03/01 06:07:33;;;;;;;14.10;5.73;;;;;;;-145.69;79.39;74169.25;5095748;28;20592;-79
2022/03/01 06:10:00;;;;;;;13.53;5.30;;;;;;;-145.69;79.83;74163.28;5095528;28;20194;-78
2022/03/01 06:12:26;;;;;;;15.53;5.90;;;;;;;-145.69;80.17;74191.16;5095393;28;20289;-78
2022/03/01 06:14:53;;;;;;;12.70;5.40;;;;;;;-145.69;80.96;74199.13;5095672;28;20199;-78
2022/03/01 06:17:19;;;;;;;14.43;5.90;;;;;;;-145.69;81.23;74197.13;5095385;28;20202;-78
2022/03/01 06:19:46;;;;;;;20.60;6.40;;;;;;;-145.69;81.55;74165.28;5095527;28;20256;-78
2022/03/01 06:22:14;;;;;;;16.20;6.57;;;;;;;-145.69;80.69;74157.31;5094851;28;20194;-79
2022/03/01 06:24:43;;;;;;;15.83;6.20;;;;;;;-145.69;79.97;74153.34;5095382;28;20198;-78
2022/03/01 06:27:12;;;;;;;13.53;6.00;;;;;;;-145.69;80.50;74181.22;5095392;28;20194;-80
2022/03/01 06:29:38;;;;;;;13.47;5.73;;;;;;;-145.69;81.09;74213.06;5095446;28;20210;-78
2022/03/01 06:32:07;;;;;;;17.87;5.73;;;;;;;-145.69;82.28;74236.97;5095346;28;20202;-77
2022/03/01 06:34:34;;;;;;;11.97;5.50;;;;;;;-145.69;83.75;74254.88;5095196;28;20205;-78
2022/03/01 06:37:01;;;;;;;13.17;5.07;;;;;;;-145.69;84.60;74272.81;5095086;28;20202;-78
2022/03/01 06:39:28;;;;;;;12.67;6.00;;;;;;;-145.69;84.23;74288.75;5095277;28;20230;-77
2022/03/01 06:41:55;;;;;;;15.90;5.63;;;;;;;-145.69;84.75;74284.75;5095397;28;20210;-77
2022/03/01 06:44:21;;;;;;;14.50;5.93;;;;;;;-145.69;85.23;74264.84;5095155;28;20228;-79
2022/03/01 06:46:48;;;;;;;16.17;6.33;;;;;;;-145.69;84.24;74280.78;5095113;28;20206;-79
2022/03/01 06:49:14;;;;;;;17.30;5.87;;;;;;;-145.69;85.63;74292.72;5094958;28;20205;-79
2022/03/01 06:51:41;;;;;;;11.77;5.37;;;;;;;-145.69;85.45;74292.72;5094764;28;20251;-79
2022/03/01 06:54:07;;;;;;;11.53;5.40;;;;;;;-145.69;85.51;74288.75;5095037;28;20198;-77
2022/03/01 06:56:35;;;;;;;11.77;5.27;;;;;;;-145.69;86.04;74278.78;5094732;28;20568;-78
2022/03/01 06:59:02;;;;;;;17.93;6.10;;;;;;;-145.69;85.79;74278.78;5094754;28;20226;-77
2022/03/01 07:01:29;;;;;;;20.80;6.50;;;;;;;-145.69;84.80;74266.84;5094881;28;20649;-79
2022/03/01 07:03:55;;;;;;;17.70;5.60;;;;;;;-145.69;84.68;74268.81;5094575;28;20228;-79
2022/03/01 07:06:21;;;;;;;12.10;5.90;;;;;;;-145.69;84.59;74274.78;5094119;28;20209;-80
2022/03/01 07:08:49;;;;;;;14.57;5.50;;;;;;;-145.69;84.00;74284.75;5094665;28;20194;-80
2022/03/01 07:11:16;;;;;;;13.80;6.03;;;;;;;-145.69;84.53;74282.75;5094684;28;20288;-79
2022/03/01 07:13:44;;;;;;;15.07;5.53;;;;;;;-145.69;84.62;74264.84;5094308;28;20198;-79
2022/03/01 07:16:10;;;;;;;15.47;6.00;;;;;;;-145.69;84.57;74252.91;5094504;28;20194;-79
2022/03/01 07:18:37;;;;;;;18.25;7.93;;;;;;;-145.69;85.03;74246.91;5093310;28;20999;-79
2022/03/01 07:21:03;;;;;;;16.47;6.67;;;;;;;-145.69;83.56;74250.91;5094509;28;20198;-79
2022/03/01 07:23:30;;;;;;;18.63;6.83;;;;;;;-145.69;83.57;74238.97;5094759;28;20199;-80
2022/03/01 07:25:56;;;;;;;21.73;6.30;;;;;;;-145.69;82.39;74231.00;5094507;28;20202;-79
2022/03/01 07:28:23;;;;;;;17.30;6.70;;;;;;;-145.69;81.23;74203.13;5094237;28;20194;-80
2022/03/01 07:30:51;;;;;;;13.20;6.10;;;;;;;-145.69;80.22;74189.19;5094168;28;20293;-80
2022/03/01 07:33:18;;;;;;;16.37;5.83;;;;;;;-145.69;78.18;74157.31;5094197;28;20556;-80
2022/03/01 07:35:44;;;;;;;17.67;6.13;;;;;;;-145.69;75.03;74121.47;5094491;28;20653;-80
2022/03/01 07:38:11;;;;;;;17.30;6.07;;;;;;;-145.69;76.19;74101.56;5094357;28;20226;-80
2022/03/01 07:40:37;;;;;;;16.97;6.27;;;;;;;-145.69;76.16;74105.53;5094404;28;20202;-80
2022/03/01 07:43:04;;;;;;;12.30;5.90;;;;;;;-145.69;76.10;74101.56;5094213;28;20198;-78
2022/03/01 07:45:30;;;;;;;18.67;6.27;;;;;;;-145.69;75.19;74093.59;5094102;28;20205;-78
2022/03/01 07:48:00;;;;;;;15.17;6.40;;;;;;;-145.69;77.05;74085.63;5093979;28;20251;-78
2022/03/01 07:50:29;;;;;;;11.50;5.40;;;;;;;-145.69;77.22;74081.66;5094082;28;20226;-79
2022/03/01 07:53:02;;;;;;;13.97;6.27;;;;;;;-145.69;78.82;74069.69;5094103;28;20212;-78
2022/03/01 07:55:29;;;;;;;12.57;5.27;;;;;;;-145.69;74.36;74045.81;5093967;28;20205;-78
2022/03/01 07:58:02;;;;;;;14.03;6.17;;;;;;;-145.69;69.48;73998.03;5093844;28;20202;-77
2022/03/01 08:00:31;;;;;;;16.03;7.63;;;;;;;-145.69;73.27;73982.09;5092983;28;20490;-77
2022/03/01 08:03:06;;;;;;;13.93;6.50;;;;;;;-145.69;69.37;73958.19;5093844;28;20444;-78
2022/03/01 08:05:33;;;;;;;14.43;7.43;;;;;;;-145.69;73.10;73934.31;5093801;28;20228;-77
2022/03/01 08:08:00;;;;;;;15.70;5.73;;;;;;;-145.69;66.68;73910.41;5093574;28;20714;-77
2022/03/01 08:10:32;;;;;;;14.10;5.87;;;;;;;-145.69;65.83;73878.56;5093300;28;20201;-77
2022/03/01 08:12:58;;;;;;;13.33;6.30;;;;;;;-145.69;65.10;73878.56;5093404;28;20201;-77
2022/03/01 08:15:27;;;;;;;16.57;6.17;;;;;;;-145.69;65.29;73864.63;5093736;28;20247;-77
2022/03/01 08:18:04;;;;;;;17.10;6.50;;;;;;;-145.69;65.21;73854.66;5092558;28;20234;-77
2022/03/01 08:20:31;;;;;;;16.60;6.13;;;;;;;-145.69;68.02;73824.78;5084786;28;20530;-77
2022/03/01 08:22:58;;;;;;;17.17;5.80;;;;;;;-145.69;66.76;73810.84;5093468;28;20206;-77
2022/03/01 08:25:30;;;;;;;18.03;6.23;;;;;;;-145.69;65.13;73798.91;5093378;28;20198;-77
2022/03/01 08:28:04;;;;;;;15.07;6.13;;;;;;;-145.69;65.62;73771.03;5093205;28;20704;-78
2022/03/01 08:30:36;;;;;;;14.57;4.70;;;;;;;-145.69;55.88;73711.31;5093451;28;20208;-77
2022/03/01 08:33:06;;;;;;;10.80;4.80;;;;;;;-145.69;56.56;73673.47;5093374;28;20653;-77
2022/03/01 08:35:39;;;;;;;10.10;4.67;;;;;;;-145.69;53.82;73657.53;5093347;28;20202;-77
2022/03/01 08:38:07;;;;;;;10.93;4.70;;;;;;;-145.69;53.17;73643.59;5093059;28;20206;-77
2022/03/01 08:40:37;;;;;;;13.77;5.50;;;;;;;-145.69;51.75;73621.72;5093217;28;20205;-77
2022/03/01 08:43:05;;;;;;;11.53;4.87;;;;;;;-145.69;51.04;73619.72;5093283;28;20657;-76
2022/03/01 08:45:32;;;;;;;9.47;4.30;;;;;;;-145.69;51.30;73615.72;5093254;28;20205;-77
2022/03/01 08:47:59;;;;;;;10.57;4.73;;;;;;;-145.69;50.95;73599.81;5093018;28;20557;-78
2022/03/01 08:50:30;;;;;;;13.70;5.00;;;;;;;-145.69;51.39;73589.84;5092850;28;20202;-77
2022/03/01 08:52:57;;;;;;;11.13;5.00;;;;;;;-145.69;50.43;73575.91;5093075;28;20204;-77
2022/03/01 08:55:24;;;;;;;10.73;5.00;;;;;;;-145.69;49.87;73583.88;5092947;28;20202;-77
2022/03/01 08:57:50;;;;;;;12.83;4.93;;;;;;;-145.69;49.68;73575.91;5093196;28;20674;-78
2022/03/01 09:00:18;;;;;;;10.20;4.30;;;;;;;-145.69;48.62;73575.91;5092782;28;20724;-78
2022/03/01 09:02:45;;;;;;;10.40;4.83;;;;;;;-145.69;49.46;73569.94;5092756;28;20288;-79
2022/03/01 09:05:13;;;;;;;10.77;5.20;;;;;;;-145.69;47.32;73556.00;5092794;28;20202;-77
2022/03/01 09:07:41;;;;;;;11.83;5.17;;;;;;;-145.69;46.46;73546.06;5092605;28;20563;-78
2022/03/01 09:10:09;;;;;;;12.43;4.87;;;;;;;-145.69;48.92;73540.06;5092914;28;20226;-78
2022/03/01 09:12:38;;;;;;;12.77;5.07;;;;;;;-145.69;47.45;73524.16;5092789;28;20289;-78
2022/03/01 09:15:08;;;;;;;11.90;5.27;;;;;;;-145.69;47.10;73512.22;5083921;28;20211;-78
2022/03/01 09:17:37;;;;;;;25.03;5.73;;;;;;;-145.69;48.29;73514.19;5072117;28;20234;-78
2022/03/01 09:20:07;;;;;;;11.10;4.43;;;;;;;-145.69;45.95;73500.25;5073268;28;20236;-79
2022/03/01 09:22:36;;;;;;;13.07;4.97;;;;;;;-145.69;47.93;73506.22;5092788;28;20209;-78
2022/03/01 09:25:04;;;;;;;10.87;5.03;;;;;;;-145.69;45.98;73500.25;5092597;28;20605;-77
2022/03/01 09:27:31;;;;;;;10.87;4.60;;;;;;;-145.69;46.78;73486.31;5092606;28;20290;-79
2022/03/01 09:29:57;;;;;;;13.33;4.87;;;;;;;-145.69;46.80;73480.34;5095193;28;20198;-78
2022/03/01 09:32:26;;;;;;;11.97;4.70;;;;;;;-145.69;46.31;73476.38;5096370;28;20201;-78
2022/03/01 09:34:56;;;;;;;9.03;4.40;;;;;;;-145.69;44.60;73472.38;5096398;28;20202;-78
2022/03/01 09:37:25;;;;;;;12.57;5.30;;;;;;;-145.69;45.48;73456.47;5096264;28;20198;-78
2022/03/01 09:39:52;;;;;;;27.87;8.47;;;;;;;-145.69;46.10;73460.44;5096166;28;20322;-77
2022/03/01 09:42:20;;;;;;;12.27;5.07;;;;;;;-145.69;44.24;73442.53;5096160;28;20194;-77
2022/03/01 09:44:47;;;;;;;12.93;5.27;;;;;;;-145.69;45.08;73424.59;5107677;28;20200;-77
2022/03/01 09:47:14;;;;;;;13.40;4.87;;;;;;;-145.69;44.60;73410.66;5104061;28;20556;-78
2022/03/01 09:49:40;;;;;;;11.53;5.00;;;;;;;-145.69;44.51;73408.69;5116829;28;20193;-77
2022/03/01 09:52:09;;;;;;;11.90;4.77;;;;;;;-145.69;45.44;73392.75;5109785;28;20194;-77
2022/03/01 09:54:36;;;;;;;10.13;4.60;;;;;;;-145.69;42.94;73392.75;5100053;28;20194;-77
2022/03/01 09:57:03;;;;;;;11.00;5.03;;;;;;;-145.69;44.74;73378.81;5095903;28;20198;-77
2022/03/01 09:59:31;;;;;;;10.47;4.33;;;;;;;-145.69;43.28;73366.88;5096215;28;20225;-77
2022/03/01 10:01:57;;;;;;;12.77;4.93;;;;;;;-145.69;43.51;73370.84;5095767;28;20205;-79
2022/03/01 10:04:25;;;;;;;11.33;4.70;;;;;;;-145.69;43.23;73378.81;5096375;28;20293;-78
2022/03/01 10:06:52;;;;;;;9.07;4.00;;;;;;;-145.69;43.93;73344.97;5109529;28;20234;-79
2022/03/01 10:09:20;;;;;;;10.77;4.33;;;;;;;-145.69;41.96;73337.00;5116532;28;20197;-79
2022/03/01 10:11:48;;;;;;;9.03;4.33;;;;;;;-145.69;42.37;73329.03;5116307;28;20254;-79
2022/03/01 10:14:28;;;;;;;10.27;4.70;;;;;;;-145.69;42.46;73331.03;5116235;27;20201;-79
2022/03/01 10:16:56;;;;;;;10.97;4.80;;;;;;;-145.69;42.33;73329.03;5116402;28;20241;-78
2022/03/01 10:19:23;;;;;;;25.73;7.17;;;;;;;-145.69;41.31;73317.09;5116168;28;20622;-79
2022/03/01 10:21:58;;;;;;;21.93;6.63;;;;;;;-145.69;43.17;73313.13;5116290;28;20656;-78
2022/03/01 10:24:24;;;;;;;22.90;5.90;;;;;;;-145.69;42.00;73293.22;5116382;28;20652;-79
2022/03/01 10:26:56;;;;;;;12.00;5.30;;;;;;;-145.69;40.35;73289.22;5115843;28;20480;-79
2022/03/01 10:29:27;;;;;;;24.93;7.23;;;;;;;-145.69;39.75;73269.31;5078177;27;20680;-78
2022/03/01 10:31:59;;;;;;;11.83;4.90;;;;;;;-145.69;41.46;73253.41;5075541;28;20199;-80
2022/03/01 10:34:27;;;;;;;17.47;5.97;;;;;;;-145.69;39.55;73233.50;5083629;28;20190;-80
2022/03/01 10:36:54;;;;;;;10.53;4.73;;;;;;;-145.69;40.86;73241.44;5116046;28;20240;-80
2022/03/01 10:39:22;;;;;;;10.83;4.63;;;;;;;-145.69;41.13;73253.41;5116284;28;20225;-79
2022/03/01 10:41:50;;;;;;;11.43;5.10;;;;;;;-145.69;39.71;73265.34;5113791;28;20197;-77
2022/03/01 10:44:19;;;;;;;12.70;4.47;;;;;;;-145.69;38.19;73257.38;5075363;28;20199;-77
2022/03/01 10:46:49;;;;;;;11.60;5.07;;;;;;;-145.69;37.88;73231.50;5092583;28;20220;-80
2022/03/01 10:49:18;;;;;;;10.37;4.73;;;;;;;-145.69;38.16;73217.56;5094453;28;20224;-79
2022/03/01 10:51:50;;;;;;;12.63;4.73;;;;;;;-145.69;37.87;73213.56;5095597;28;20202;-80
2022/03/01 10:54:28;;;;;;;14.77;5.03;;;;;;;-145.69;37.96;73205.63;5095524;28;20213;-80
2022/03/01 10:56:56;;;;;;;10.23;4.53;;;;;;;-145.69;37.14;73199.66;5095180;28;20201;-80
2022/03/01 10:59:23;;;;;;;11.57;4.20;;;;;;;-145.69;36.88;73193.66;5095001;28;20317;-80
2022/03/01 11:01:50;;;;;;;9.63;4.17;;;;;;;-145.69;37.35;73177.75;5096378;28;20222;-80
2022/03/01 11:04:17;;;;;;;13.87;4.17;;;;;;;-145.69;36.78;73169.78;5095184;28;20190;-80
2022/03/01 11:06:47;;;;;;;10.83;4.17;;;;;;;-145.69;36.68;73161.81;5094923;28;20198;-79
2022/03/01 11:09:16;;;;;;;14.97;4.70;;;;;;;-145.69;38.32;73151.88;5094684;28;20205;-78
2022/03/01 11:11:44;;;;;;;11.87;4.97;;;;;;;-145.69;38.64;73127.97;5094501;28;20205;-81